sensor_id;sensor_type;location;lat;lon;timestamp;P1;durP1;ratioP1;P2;durP2;ratioP2
29516;SDS011;40993;50.594;8.664;2023-12-04T00:00:50;82.65;;;31.05;;
29516;SDS011;40993;50.594;8.664;2023-12-04T00:03:18;87.63;;;31.17;;
29516;SDS011;40993;50.594;8.664;2023-12-04T00:05:45;87.13;;;32.03;;
29516;SDS011;40993;50.594;8.664;2023-12-04T00:08:13;91.05;;;33.33;;
29516;SDS011;40993;50.594;8.664;2023-12-04T00:10:40;91.30;;;32.60;;
29516;SDS011;40993;50.594;8.664;2023-12-04T00:13:08;88.68;;;32.50;;
29516;SDS011;40993;50.594;8.664;2023-12-04T00:15:36;90.45;;;32.15;;
29516;SDS011;40993;50.594;8.664;2023-12-04T00:18:05;89.28;;;32.78;;
29516;SDS011;40993;50.594;8.664;2023-12-04T00:20:32;93.50;;;32.55;;
29516;SDS011;40993;50.594;8.664;2023-12-04T00:23:00;98.22;;;33.88;;
29516;SDS011;40993;50.594;8.664;2023-12-04T00:25:27;98.20;;;32.17;;
29516;SDS011;40993;50.594;8.664;2023-12-04T00:27:55;93.03;;;33.72;;
29516;SDS011;40993;50.594;8.664;2023-12-04T00:30:22;90.72;;;32.25;;
29516;SDS011;40993;50.594;8.664;2023-12-04T00:32:50;90.43;;;32.20;;
29516;SDS011;40993;50.594;8.664;2023-12-04T00:35:19;87.53;;;32.47;;
29516;SDS011;40993;50.594;8.664;2023-12-04T00:37:46;94.05;;;32.38;;
29516;SDS011;40993;50.594;8.664;2023-12-04T00:40:14;95.35;;;32.92;;
29516;SDS011;40993;50.594;8.664;2023-12-04T00:42:42;94.72;;;31.13;;
29516;SDS011;40993;50.594;8.664;2023-12-04T00:45:09;97.00;;;32.83;;
29516;SDS011;40993;50.594;8.664;2023-12-04T00:47:37;101.75;;;34.40;;
29516;SDS011;40993;50.594;8.664;2023-12-04T00:50:05;97.38;;;34.05;;
29516;SDS011;40993;50.594;8.664;2023-12-04T00:52:34;99.15;;;34.25;;
29516;SDS011;40993;50.594;8.664;2023-12-04T00:55:01;93.80;;;33.78;;
29516;SDS011;40993;50.594;8.664;2023-12-04T00:57:29;89.20;;;33.22;;
29516;SDS011;40993;50.594;8.664;2023-12-04T00:59:57;91.43;;;32.08;;
29516;SDS011;40993;50.594;8.664;2023-12-04T01:02:24;94.63;;;32.33;;
29516;SDS011;40993;50.594;8.664;2023-12-04T01:04:52;97.45;;;33.47;;
29516;SDS011;40993;50.594;8.664;2023-12-04T01:07:19;97.57;;;34.42;;
29516;SDS011;40993;50.594;8.664;2023-12-04T01:09:48;98.70;;;32.92;;
29516;SDS011;40993;50.594;8.664;2023-12-04T01:12:16;96.45;;;33.17;;
29516;SDS011;40993;50.594;8.664;2023-12-04T01:14:43;100.38;;;32.47;;
29516;SDS011;40993;50.594;8.664;2023-12-04T01:17:11;96.20;;;33.17;;
29516;SDS011;40993;50.594;8.664;2023-12-04T01:19:38;88.80;;;31.65;;
29516;SDS011;40993;50.594;8.664;2023-12-04T01:22:06;89.07;;;31.65;;
29516;SDS011;40993;50.594;8.664;2023-12-04T01:24:33;92.70;;;32.58;;
29516;SDS011;40993;50.594;8.664;2023-12-04T01:27:02;84.50;;;31.70;;
29516;SDS011;40993;50.594;8.664;2023-12-04T01:29:30;93.75;;;31.58;;
29516;SDS011;40993;50.594;8.664;2023-12-04T01:31:58;94.40;;;32.67;;
29516;SDS011;40993;50.594;8.664;2023-12-04T01:34:25;93.38;;;31.63;;
29516;SDS011;40993;50.594;8.664;2023-12-04T01:36:53;89.05;;;31.67;;
29516;SDS011;40993;50.594;8.664;2023-12-04T01:39:20;91.20;;;31.88;;
29516;SDS011;40993;50.594;8.664;2023-12-04T01:41:48;89.82;;;33.97;;
29516;SDS011;40993;50.594;8.664;2023-12-04T01:44:17;84.85;;;30.13;;
29516;SDS011;40993;50.594;8.664;2023-12-04T01:46:45;92.07;;;31.67;;
29516;SDS011;40993;50.594;8.664;2023-12-04T01:49:12;90.32;;;32.60;;
29516;SDS011;40993;50.594;8.664;2023-12-04T01:51:40;86.63;;;30.42;;
29516;SDS011;40993;50.594;8.664;2023-12-04T01:54:09;90.78;;;32.17;;
29516;SDS011;40993;50.594;8.664;2023-12-04T01:56:37;87.57;;;32.15;;
29516;SDS011;40993;50.594;8.664;2023-12-04T01:59:04;92.53;;;31.02;;
29516;SDS011;40993;50.594;8.664;2023-12-04T02:01:33;90.30;;;31.10;;
29516;SDS011;40993;50.594;8.664;2023-12-04T02:04:01;92.90;;;31.85;;
29516;SDS011;40993;50.594;8.664;2023-12-04T02:06:28;85.25;;;31.33;;
29516;SDS011;40993;50.594;8.664;2023-12-04T02:08:56;92.82;;;31.42;;
29516;SDS011;40993;50.594;8.664;2023-12-04T02:11:24;93.35;;;31.25;;
29516;SDS011;40993;50.594;8.664;2023-12-04T02:13:52;90.40;;;31.83;;
29516;SDS011;40993;50.594;8.664;2023-12-04T02:16:20;89.25;;;31.67;;
29516;SDS011;40993;50.594;8.664;2023-12-04T02:18:52;87.90;;;30.60;;
29516;SDS011;40993;50.594;8.664;2023-12-04T02:21:20;92.05;;;32.63;;
29516;SDS011;40993;50.594;8.664;2023-12-04T02:23:49;96.47;;;33.38;;
29516;SDS011;40993;50.594;8.664;2023-12-04T02:26:18;99.65;;;35.28;;
29516;SDS011;40993;50.594;8.664;2023-12-04T02:28:51;95.80;;;33.80;;
29516;SDS011;40993;50.594;8.664;2023-12-04T02:31:21;100.13;;;32.85;;
29516;SDS011;40993;50.594;8.664;2023-12-04T02:33:51;91.20;;;31.52;;
29516;SDS011;40993;50.594;8.664;2023-12-04T02:36:20;90.30;;;32.72;;
29516;SDS011;40993;50.594;8.664;2023-12-04T02:38:49;95.07;;;33.28;;
29516;SDS011;40993;50.594;8.664;2023-12-04T02:41:17;94.28;;;32.78;;
29516;SDS011;40993;50.594;8.664;2023-12-04T02:43:45;88.32;;;33.13;;
29516;SDS011;40993;50.594;8.664;2023-12-04T02:46:12;90.75;;;32.15;;
29516;SDS011;40993;50.594;8.664;2023-12-04T02:48:40;96.13;;;31.73;;
29516;SDS011;40993;50.594;8.664;2023-12-04T02:51:08;91.63;;;31.08;;
29516;SDS011;40993;50.594;8.664;2023-12-04T02:53:36;91.90;;;31.80;;
29516;SDS011;40993;50.594;8.664;2023-12-04T02:56:05;98.65;;;32.95;;
29516;SDS011;40993;50.594;8.664;2023-12-04T02:58:33;97.95;;;34.45;;
29516;SDS011;40993;50.594;8.664;2023-12-04T03:01:00;94.20;;;32.42;;
29516;SDS011;40993;50.594;8.664;2023-12-04T03:03:28;92.53;;;32.05;;
29516;SDS011;40993;50.594;8.664;2023-12-04T03:05:56;89.00;;;32.15;;
29516;SDS011;40993;50.594;8.664;2023-12-04T03:08:24;98.30;;;33.42;;
29516;SDS011;40993;50.594;8.664;2023-12-04T03:10:51;94.40;;;33.40;;
29516;SDS011;40993;50.594;8.664;2023-12-04T03:13:20;97.10;;;34.67;;
29516;SDS011;40993;50.594;8.664;2023-12-04T03:15:48;99.10;;;33.95;;
29516;SDS011;40993;50.594;8.664;2023-12-04T03:18:15;103.07;;;33.22;;
29516;SDS011;40993;50.594;8.664;2023-12-04T03:20:43;97.15;;;35.13;;
29516;SDS011;40993;50.594;8.664;2023-12-04T03:23:10;96.40;;;33.35;;
29516;SDS011;40993;50.594;8.664;2023-12-04T03:25:38;92.85;;;34.70;;
29516;SDS011;40993;50.594;8.664;2023-12-04T03:28:05;103.00;;;33.35;;
29516;SDS011;40993;50.594;8.664;2023-12-04T03:30:34;95.75;;;33.25;;
29516;SDS011;40993;50.594;8.664;2023-12-04T03:33:02;97.90;;;35.78;;
29516;SDS011;40993;50.594;8.664;2023-12-04T03:35:30;98.75;;;33.90;;
29516;SDS011;40993;50.594;8.664;2023-12-04T03:37:57;96.15;;;34.38;;
29516;SDS011;40993;50.594;8.664;2023-12-04T03:40:25;93.93;;;32.70;;
29516;SDS011;40993;50.594;8.664;2023-12-04T03:42:53;89.78;;;32.50;;
29516;SDS011;40993;50.594;8.664;2023-12-04T03:45:20;93.20;;;33.72;;
29516;SDS011;40993;50.594;8.664;2023-12-04T03:47:48;93.30;;;34.58;;
29516;SDS011;40993;50.594;8.664;2023-12-04T03:50:16;94.57;;;34.65;;
29516;SDS011;40993;50.594;8.664;2023-12-04T03:52:43;86.95;;;32.78;;
29516;SDS011;40993;50.594;8.664;2023-12-04T03:55:11;91.18;;;34.00;;
29516;SDS011;40993;50.594;8.664;2023-12-04T03:57:39;95.93;;;32.17;;
29516;SDS011;40993;50.594;8.664;2023-12-04T04:00:06;95.68;;;33.10;;
29516;SDS011;40993;50.594;8.664;2023-12-04T04:02:39;86.72;;;31.45;;
29516;SDS011;40993;50.594;8.664;2023-12-04T04:05:08;86.43;;;32.95;;
29516;SDS011;40993;50.594;8.664;2023-12-04T04:07:36;87.18;;;33.00;;
29516;SDS011;40993;50.594;8.664;2023-12-04T04:10:04;91.82;;;33.20;;
29516;SDS011;40993;50.594;8.664;2023-12-04T04:12:32;86.30;;;32.00;;
29516;SDS011;40993;50.594;8.664;2023-12-04T04:15:00;87.35;;;31.75;;
29516;SDS011;40993;50.594;8.664;2023-12-04T04:17:27;88.90;;;32.50;;
29516;SDS011;40993;50.594;8.664;2023-12-04T04:19:55;91.28;;;33.65;;
29516;SDS011;40993;50.594;8.664;2023-12-04T04:22:24;92.65;;;32.22;;
29516;SDS011;40993;50.594;8.664;2023-12-04T04:24:52;91.55;;;33.78;;
29516;SDS011;40993;50.594;8.664;2023-12-04T04:27:20;86.45;;;32.00;;
29516;SDS011;40993;50.594;8.664;2023-12-04T04:29:48;88.35;;;33.67;;
29516;SDS011;40993;50.594;8.664;2023-12-04T04:32:15;91.43;;;31.95;;
29516;SDS011;40993;50.594;8.664;2023-12-04T04:34:43;88.45;;;32.45;;
29516;SDS011;40993;50.594;8.664;2023-12-04T04:37:11;87.60;;;33.20;;
29516;SDS011;40993;50.594;8.664;2023-12-04T04:39:40;89.50;;;32.78;;
29516;SDS011;40993;50.594;8.664;2023-12-04T04:42:08;90.63;;;33.10;;
29516;SDS011;40993;50.594;8.664;2023-12-04T04:44:35;80.15;;;31.45;;
29516;SDS011;40993;50.594;8.664;2023-12-04T04:47:03;85.03;;;30.45;;
29516;SDS011;40993;50.594;8.664;2023-12-04T04:49:30;85.97;;;31.00;;
29516;SDS011;40993;50.594;8.664;2023-12-04T04:51:58;79.15;;;30.50;;
29516;SDS011;40993;50.594;8.664;2023-12-04T04:54:26;86.57;;;31.15;;
29516;SDS011;40993;50.594;8.664;2023-12-04T04:56:55;86.00;;;32.50;;
29516;SDS011;40993;50.594;8.664;2023-12-04T04:59:22;85.85;;;33.10;;
29516;SDS011;40993;50.594;8.664;2023-12-04T05:01:50;88.45;;;33.72;;
29516;SDS011;40993;50.594;8.664;2023-12-04T05:04:17;89.40;;;32.83;;
29516;SDS011;40993;50.594;8.664;2023-12-04T05:06:45;88.95;;;32.28;;
29516;SDS011;40993;50.594;8.664;2023-12-04T05:09:12;88.72;;;33.83;;
29516;SDS011;40993;50.594;8.664;2023-12-04T05:11:40;80.95;;;32.22;;
29516;SDS011;40993;50.594;8.664;2023-12-04T05:14:09;87.22;;;31.73;;
29516;SDS011;40993;50.594;8.664;2023-12-04T05:16:36;86.43;;;31.70;;
29516;SDS011;40993;50.594;8.664;2023-12-04T05:19:04;88.00;;;34.53;;
29516;SDS011;40993;50.594;8.664;2023-12-04T05:21:32;85.95;;;33.72;;
29516;SDS011;40993;50.594;8.664;2023-12-04T05:23:59;91.78;;;32.25;;
29516;SDS011;40993;50.594;8.664;2023-12-04T05:26:27;86.50;;;32.53;;
29516;SDS011;40993;50.594;8.664;2023-12-04T05:28:55;93.63;;;34.70;;
29516;SDS011;40993;50.594;8.664;2023-12-04T05:31:24;98.30;;;34.92;;
29516;SDS011;40993;50.594;8.664;2023-12-04T05:33:51;98.38;;;34.28;;
29516;SDS011;40993;50.594;8.664;2023-12-04T05:36:19;94.93;;;34.50;;
29516;SDS011;40993;50.594;8.664;2023-12-04T05:38:47;94.05;;;34.85;;
29516;SDS011;40993;50.594;8.664;2023-12-04T05:41:14;88.88;;;32.55;;
29516;SDS011;40993;50.594;8.664;2023-12-04T05:43:42;101.30;;;35.42;;
29516;SDS011;40993;50.594;8.664;2023-12-04T05:46:09;90.43;;;34.05;;
29516;SDS011;40993;50.594;8.664;2023-12-04T05:48:38;89.18;;;32.58;;
29516;SDS011;40993;50.594;8.664;2023-12-04T05:51:06;91.20;;;33.40;;
29516;SDS011;40993;50.594;8.664;2023-12-04T05:53:33;90.10;;;33.47;;
29516;SDS011;40993;50.594;8.664;2023-12-04T05:56:02;85.32;;;31.90;;
29516;SDS011;40993;50.594;8.664;2023-12-04T05:58:29;85.68;;;33.25;;
29516;SDS011;40993;50.594;8.664;2023-12-04T06:00:57;83.88;;;34.00;;
29516;SDS011;40993;50.594;8.664;2023-12-04T06:03:25;84.85;;;32.63;;
29516;SDS011;40993;50.594;8.664;2023-12-04T06:05:53;81.28;;;31.88;;
29516;SDS011;40993;50.594;8.664;2023-12-04T06:08:24;82.47;;;31.35;;
29516;SDS011;40993;50.594;8.664;2023-12-04T06:10:51;91.30;;;33.83;;
29516;SDS011;40993;50.594;8.664;2023-12-04T06:13:19;86.95;;;32.47;;
29516;SDS011;40993;50.594;8.664;2023-12-04T06:15:47;91.78;;;33.70;;
29516;SDS011;40993;50.594;8.664;2023-12-04T06:18:14;87.82;;;33.15;;
29516;SDS011;40993;50.594;8.664;2023-12-04T06:20:42;84.40;;;31.40;;
29516;SDS011;40993;50.594;8.664;2023-12-04T06:23:11;89.45;;;32.65;;
29516;SDS011;40993;50.594;8.664;2023-12-04T06:25:39;85.40;;;32.17;;
29516;SDS011;40993;50.594;8.664;2023-12-04T06:28:07;84.25;;;32.72;;
29516;SDS011;40993;50.594;8.664;2023-12-04T06:30:35;87.10;;;32.25;;
29516;SDS011;40993;50.594;8.664;2023-12-04T06:33:03;84.28;;;31.83;;
29516;SDS011;40993;50.594;8.664;2023-12-04T06:35:31;87.07;;;33.50;;
29516;SDS011;40993;50.594;8.664;2023-12-04T06:37:59;87.68;;;32.25;;
29516;SDS011;40993;50.594;8.664;2023-12-04T06:40:30;90.70;;;31.50;;
29516;SDS011;40993;50.594;8.664;2023-12-04T06:42:58;89.88;;;33.05;;
29516;SDS011;40993;50.594;8.664;2023-12-04T06:45:26;83.18;;;32.75;;
29516;SDS011;40993;50.594;8.664;2023-12-04T06:47:54;81.20;;;32.72;;
29516;SDS011;40993;50.594;8.664;2023-12-04T06:50:22;81.97;;;31.45;;
29516;SDS011;40993;50.594;8.664;2023-12-04T06:52:49;82.63;;;32.50;;
29516;SDS011;40993;50.594;8.664;2023-12-04T06:55:17;84.45;;;32.13;;
29516;SDS011;40993;50.594;8.664;2023-12-04T06:57:46;87.78;;;32.20;;
29516;SDS011;40993;50.594;8.664;2023-12-04T07:00:14;80.43;;;31.45;;
29516;SDS011;40993;50.594;8.664;2023-12-04T07:02:48;77.90;;;30.50;;
29516;SDS011;40993;50.594;8.664;2023-12-04T07:05:16;79.85;;;30.63;;
29516;SDS011;40993;50.594;8.664;2023-12-04T07:07:43;77.47;;;31.20;;
29516;SDS011;40993;50.594;8.664;2023-12-04T07:10:11;81.68;;;31.30;;
29516;SDS011;40993;50.594;8.664;2023-12-04T07:12:41;76.05;;;31.08;;
29516;SDS011;40993;50.594;8.664;2023-12-04T07:15:11;81.70;;;31.42;;
29516;SDS011;40993;50.594;8.664;2023-12-04T07:17:39;81.68;;;30.35;;
29516;SDS011;40993;50.594;8.664;2023-12-04T07:20:07;71.55;;;28.92;;
29516;SDS011;40993;50.594;8.664;2023-12-04T07:22:35;81.35;;;29.90;;
29516;SDS011;40993;50.594;8.664;2023-12-04T07:25:04;75.55;;;30.27;;
29516;SDS011;40993;50.594;8.664;2023-12-04T07:27:33;80.28;;;30.40;;
29516;SDS011;40993;50.594;8.664;2023-12-04T07:30:02;76.60;;;30.05;;
29516;SDS011;40993;50.594;8.664;2023-12-04T07:32:31;78.15;;;30.88;;
29516;SDS011;40993;50.594;8.664;2023-12-04T07:34:59;75.80;;;28.38;;
29516;SDS011;40993;50.594;8.664;2023-12-04T07:37:27;77.97;;;31.15;;
29516;SDS011;40993;50.594;8.664;2023-12-04T07:39:56;72.18;;;30.40;;
29516;SDS011;40993;50.594;8.664;2023-12-04T07:42:24;74.25;;;29.63;;
29516;SDS011;40993;50.594;8.664;2023-12-04T07:44:51;74.93;;;30.83;;
29516;SDS011;40993;50.594;8.664;2023-12-04T07:47:19;75.68;;;30.30;;
29516;SDS011;40993;50.594;8.664;2023-12-04T07:49:48;76.63;;;31.52;;
29516;SDS011;40993;50.594;8.664;2023-12-04T07:52:15;80.88;;;30.92;;
29516;SDS011;40993;50.594;8.664;2023-12-04T07:54:44;70.45;;;30.10;;
29516;SDS011;40993;50.594;8.664;2023-12-04T07:57:11;88.13;;;32.67;;
29516;SDS011;40993;50.594;8.664;2023-12-04T07:59:39;75.85;;;30.95;;
29516;SDS011;40993;50.594;8.664;2023-12-04T08:02:06;76.28;;;33.10;;
29516;SDS011;40993;50.594;8.664;2023-12-04T08:04:34;77.90;;;32.17;;
29516;SDS011;40993;50.594;8.664;2023-12-04T08:07:03;72.65;;;29.45;;
29516;SDS011;40993;50.594;8.664;2023-12-04T08:09:31;72.07;;;28.85;;
29516;SDS011;40993;50.594;8.664;2023-12-04T08:11:59;69.70;;;28.08;;
29516;SDS011;40993;50.594;8.664;2023-12-04T08:14:26;72.47;;;30.80;;
29516;SDS011;40993;50.594;8.664;2023-12-04T08:16:54;69.78;;;29.85;;
29516;SDS011;40993;50.594;8.664;2023-12-04T08:19:22;80.90;;;31.58;;
29516;SDS011;40993;50.594;8.664;2023-12-04T08:21:50;72.35;;;31.20;;
29516;SDS011;40993;50.594;8.664;2023-12-04T08:24:19;69.63;;;29.40;;
29516;SDS011;40993;50.594;8.664;2023-12-04T08:26:47;69.55;;;28.75;;
29516;SDS011;40993;50.594;8.664;2023-12-04T08:29:17;72.03;;;29.05;;
29516;SDS011;40993;50.594;8.664;2023-12-04T08:31:44;66.13;;;29.38;;
29516;SDS011;40993;50.594;8.664;2023-12-04T08:34:12;69.75;;;28.77;;
29516;SDS011;40993;50.594;8.664;2023-12-04T08:36:39;68.60;;;28.88;;
29516;SDS011;40993;50.594;8.664;2023-12-04T08:39:12;63.42;;;27.73;;
29516;SDS011;40993;50.594;8.664;2023-12-04T08:41:43;66.63;;;27.70;;
29516;SDS011;40993;50.594;8.664;2023-12-04T08:44:23;65.38;;;28.85;;
29516;SDS011;40993;50.594;8.664;2023-12-04T08:46:51;70.38;;;28.75;;
29516;SDS011;40993;50.594;8.664;2023-12-04T08:49:19;66.90;;;27.95;;
29516;SDS011;40993;50.594;8.664;2023-12-04T08:51:46;62.17;;;27.15;;
29516;SDS011;40993;50.594;8.664;2023-12-04T08:54:14;65.57;;;27.85;;
29516;SDS011;40993;50.594;8.664;2023-12-04T08:56:44;66.03;;;28.58;;
29516;SDS011;40993;50.594;8.664;2023-12-04T08:59:12;63.67;;;27.85;;
29516;SDS011;40993;50.594;8.664;2023-12-04T09:01:40;62.45;;;27.00;;
29516;SDS011;40993;50.594;8.664;2023-12-04T09:04:08;60.60;;;28.70;;
29516;SDS011;40993;50.594;8.664;2023-12-04T09:06:35;59.22;;;27.30;;
29516;SDS011;40993;50.594;8.664;2023-12-04T09:09:06;64.43;;;27.92;;
29516;SDS011;40993;50.594;8.664;2023-12-04T09:11:40;75.43;;;31.35;;
29516;SDS011;40993;50.594;8.664;2023-12-04T09:14:09;62.83;;;28.90;;
29516;SDS011;40993;50.594;8.664;2023-12-04T09:16:37;56.83;;;26.83;;
29516;SDS011;40993;50.594;8.664;2023-12-04T09:19:04;61.00;;;26.98;;
29516;SDS011;40993;50.594;8.664;2023-12-04T09:21:32;64.03;;;28.27;;
29516;SDS011;40993;50.594;8.664;2023-12-04T09:24:00;57.50;;;26.00;;
29516;SDS011;40993;50.594;8.664;2023-12-04T09:26:27;57.67;;;26.42;;
29516;SDS011;40993;50.594;8.664;2023-12-04T09:28:55;55.58;;;25.50;;
29516;SDS011;40993;50.594;8.664;2023-12-04T09:31:24;57.30;;;25.63;;
29516;SDS011;40993;50.594;8.664;2023-12-04T09:33:52;56.70;;;25.35;;
29516;SDS011;40993;50.594;8.664;2023-12-04T09:36:20;61.15;;;26.38;;
29516;SDS011;40993;50.594;8.664;2023-12-04T09:38:47;54.42;;;24.30;;
29516;SDS011;40993;50.594;8.664;2023-12-04T09:41:15;55.38;;;25.35;;
29516;SDS011;40993;50.594;8.664;2023-12-04T09:43:43;54.80;;;24.90;;
29516;SDS011;40993;50.594;8.664;2023-12-04T09:46:11;52.45;;;24.17;;
29516;SDS011;40993;50.594;8.664;2023-12-04T09:48:41;50.22;;;22.95;;
29516;SDS011;40993;50.594;8.664;2023-12-04T09:51:10;55.08;;;24.38;;
29516;SDS011;40993;50.594;8.664;2023-12-04T09:53:38;52.05;;;23.60;;
29516;SDS011;40993;50.594;8.664;2023-12-04T09:56:07;49.08;;;23.95;;
29516;SDS011;40993;50.594;8.664;2023-12-04T09:58:36;48.08;;;22.10;;
29516;SDS011;40993;50.594;8.664;2023-12-04T10:01:07;50.45;;;23.40;;
29516;SDS011;40993;50.594;8.664;2023-12-04T10:03:34;48.50;;;22.80;;
29516;SDS011;40993;50.594;8.664;2023-12-04T10:06:04;51.67;;;22.83;;
29516;SDS011;40993;50.594;8.664;2023-12-04T10:08:32;45.55;;;22.70;;
29516;SDS011;40993;50.594;8.664;2023-12-04T10:11:00;48.45;;;22.10;;
29516;SDS011;40993;50.594;8.664;2023-12-04T10:13:27;44.22;;;21.35;;
29516;SDS011;40993;50.594;8.664;2023-12-04T10:16:15;45.65;;;21.58;;
29516;SDS011;40993;50.594;8.664;2023-12-04T10:19:01;44.67;;;20.98;;
29516;SDS011;40993;50.594;8.664;2023-12-04T10:21:42;43.20;;;21.08;;
29516;SDS011;40993;50.594;8.664;2023-12-04T10:24:10;43.60;;;20.77;;
29516;SDS011;40993;50.594;8.664;2023-12-04T10:26:37;42.20;;;20.58;;
29516;SDS011;40993;50.594;8.664;2023-12-04T10:29:05;39.47;;;19.48;;
29516;SDS011;40993;50.594;8.664;2023-12-04T10:31:33;40.20;;;20.00;;
29516;SDS011;40993;50.594;8.664;2023-12-04T10:34:01;43.03;;;20.45;;
29516;SDS011;40993;50.594;8.664;2023-12-04T10:36:30;37.58;;;19.23;;
29516;SDS011;40993;50.594;8.664;2023-12-04T10:39:02;38.13;;;17.85;;
29516;SDS011;40993;50.594;8.664;2023-12-04T10:41:31;43.55;;;19.75;;
29516;SDS011;40993;50.594;8.664;2023-12-04T10:43:58;37.05;;;19.00;;
29516;SDS011;40993;50.594;8.664;2023-12-04T10:46:36;42.05;;;18.38;;
29516;SDS011;40993;50.594;8.664;2023-12-04T10:49:04;37.83;;;18.30;;
29516;SDS011;40993;50.594;8.664;2023-12-04T10:51:32;39.25;;;18.90;;
29516;SDS011;40993;50.594;8.664;2023-12-04T10:54:02;40.67;;;18.98;;
29516;SDS011;40993;50.594;8.664;2023-12-04T10:56:33;42.42;;;19.48;;
29516;SDS011;40993;50.594;8.664;2023-12-04T10:59:02;38.38;;;18.27;;
29516;SDS011;40993;50.594;8.664;2023-12-04T11:01:30;37.92;;;18.58;;
29516;SDS011;40993;50.594;8.664;2023-12-04T11:04:00;35.38;;;16.88;;
29516;SDS011;40993;50.594;8.664;2023-12-04T11:06:33;36.05;;;16.35;;
29516;SDS011;40993;50.594;8.664;2023-12-04T11:09:03;33.40;;;16.77;;
29516;SDS011;40993;50.594;8.664;2023-12-04T11:11:34;35.58;;;17.60;;
29516;SDS011;40993;50.594;8.664;2023-12-04T11:14:03;36.10;;;17.33;;
29516;SDS011;40993;50.594;8.664;2023-12-04T11:16:33;34.53;;;17.42;;
29516;SDS011;40993;50.594;8.664;2023-12-04T11:19:03;34.60;;;17.48;;
29516;SDS011;40993;50.594;8.664;2023-12-04T11:21:33;38.90;;;17.52;;
29516;SDS011;40993;50.594;8.664;2023-12-04T11:24:01;34.20;;;17.13;;
29516;SDS011;40993;50.594;8.664;2023-12-04T11:26:30;32.20;;;16.65;;
29516;SDS011;40993;50.594;8.664;2023-12-04T11:28:58;32.72;;;16.25;;
29516;SDS011;40993;50.594;8.664;2023-12-04T11:31:26;35.42;;;17.70;;
29516;SDS011;40993;50.594;8.664;2023-12-04T11:33:54;35.00;;;16.77;;
29516;SDS011;40993;50.594;8.664;2023-12-04T11:36:28;33.00;;;17.25;;
29516;SDS011;40993;50.594;8.664;2023-12-04T11:38:56;35.40;;;17.65;;
29516;SDS011;40993;50.594;8.664;2023-12-04T11:41:24;31.48;;;16.50;;
29516;SDS011;40993;50.594;8.664;2023-12-04T11:43:56;33.47;;;16.88;;
29516;SDS011;40993;50.594;8.664;2023-12-04T11:46:25;32.53;;;16.17;;
29516;SDS011;40993;50.594;8.664;2023-12-04T11:48:53;38.55;;;17.13;;
29516;SDS011;40993;50.594;8.664;2023-12-04T11:54:11;31.20;;;16.13;;
29516;SDS011;40993;50.594;8.664;2023-12-04T11:56:43;34.28;;;16.85;;
29516;SDS011;40993;50.594;8.664;2023-12-04T11:59:25;30.88;;;16.48;;
29516;SDS011;40993;50.594;8.664;2023-12-04T12:01:54;35.00;;;17.52;;
29516;SDS011;40993;50.594;8.664;2023-12-04T12:04:21;37.08;;;18.02;;
29516;SDS011;40993;50.594;8.664;2023-12-04T12:06:49;35.65;;;16.85;;
29516;SDS011;40993;50.594;8.664;2023-12-04T12:09:17;34.28;;;18.23;;
29516;SDS011;40993;50.594;8.664;2023-12-04T12:11:45;34.30;;;17.73;;
29516;SDS011;40993;50.594;8.664;2023-12-04T12:14:13;35.13;;;17.73;;
29516;SDS011;40993;50.594;8.664;2023-12-04T12:16:42;34.95;;;17.45;;
29516;SDS011;40993;50.594;8.664;2023-12-04T12:19:09;35.63;;;17.33;;
29516;SDS011;40993;50.594;8.664;2023-12-04T12:21:37;36.75;;;18.15;;
29516;SDS011;40993;50.594;8.664;2023-12-04T12:24:05;37.22;;;18.08;;
29516;SDS011;40993;50.594;8.664;2023-12-04T12:26:33;36.20;;;17.92;;
29516;SDS011;40993;50.594;8.664;2023-12-04T12:29:00;33.85;;;16.25;;
29516;SDS011;40993;50.594;8.664;2023-12-04T12:31:28;40.25;;;18.75;;
29516;SDS011;40993;50.594;8.664;2023-12-04T12:33:57;32.83;;;16.10;;
29516;SDS011;40993;50.594;8.664;2023-12-04T12:36:24;34.72;;;18.00;;
29516;SDS011;40993;50.594;8.664;2023-12-04T12:38:53;38.13;;;19.08;;
29516;SDS011;40993;50.594;8.664;2023-12-04T12:41:22;38.67;;;17.80;;
29516;SDS011;40993;50.594;8.664;2023-12-04T12:43:51;36.35;;;17.52;;
29516;SDS011;40993;50.594;8.664;2023-12-04T12:46:18;38.88;;;19.27;;
29516;SDS011;40993;50.594;8.664;2023-12-04T12:48:46;35.80;;;17.92;;
29516;SDS011;40993;50.594;8.664;2023-12-04T12:51:15;37.97;;;18.30;;
29516;SDS011;40993;50.594;8.664;2023-12-04T12:53:45;35.83;;;17.90;;
29516;SDS011;40993;50.594;8.664;2023-12-04T12:56:17;34.87;;;18.07;;
29516;SDS011;40993;50.594;8.664;2023-12-04T12:58:45;39.45;;;17.95;;
29516;SDS011;40993;50.594;8.664;2023-12-04T13:01:12;35.47;;;17.63;;
29516;SDS011;40993;50.594;8.664;2023-12-04T13:03:40;34.63;;;17.55;;
29516;SDS011;40993;50.594;8.664;2023-12-04T13:06:08;37.83;;;18.50;;
29516;SDS011;40993;50.594;8.664;2023-12-04T13:08:37;40.35;;;19.00;;
29516;SDS011;40993;50.594;8.664;2023-12-04T13:11:06;36.50;;;17.33;;
29516;SDS011;40993;50.594;8.664;2023-12-04T13:13:34;38.17;;;19.52;;
29516;SDS011;40993;50.594;8.664;2023-12-04T13:16:02;37.60;;;18.55;;
29516;SDS011;40993;50.594;8.664;2023-12-04T13:18:30;37.03;;;18.83;;
29516;SDS011;40993;50.594;8.664;2023-12-04T13:20:58;37.80;;;18.25;;
29516;SDS011;40993;50.594;8.664;2023-12-04T13:23:25;34.72;;;17.80;;
29516;SDS011;40993;50.594;8.664;2023-12-04T13:25:54;33.40;;;18.15;;
29516;SDS011;40993;50.594;8.664;2023-12-04T13:28:22;37.35;;;19.00;;
29516;SDS011;40993;50.594;8.664;2023-12-04T13:31:01;36.95;;;18.33;;
29516;SDS011;40993;50.594;8.664;2023-12-04T13:33:29;36.33;;;17.63;;
29516;SDS011;40993;50.594;8.664;2023-12-04T13:35:56;37.50;;;18.67;;
29516;SDS011;40993;50.594;8.664;2023-12-04T13:38:24;36.95;;;18.65;;
29516;SDS011;40993;50.594;8.664;2023-12-04T13:41:04;42.25;;;18.63;;
29516;SDS011;40993;50.594;8.664;2023-12-04T13:43:55;35.97;;;18.10;;
29516;SDS011;40993;50.594;8.664;2023-12-04T13:46:22;38.60;;;18.48;;
29516;SDS011;40993;50.594;8.664;2023-12-04T13:48:51;35.70;;;18.15;;
29516;SDS011;40993;50.594;8.664;2023-12-04T13:51:18;38.03;;;18.48;;
29516;SDS011;40993;50.594;8.664;2023-12-04T13:53:46;41.83;;;19.33;;
29516;SDS011;40993;50.594;8.664;2023-12-04T13:56:17;39.25;;;19.35;;
29516;SDS011;40993;50.594;8.664;2023-12-04T13:59:07;39.70;;;19.25;;
29516;SDS011;40993;50.594;8.664;2023-12-04T14:01:43;36.10;;;17.88;;
29516;SDS011;40993;50.594;8.664;2023-12-04T14:04:11;38.03;;;19.23;;
29516;SDS011;40993;50.594;8.664;2023-12-04T14:06:39;40.17;;;18.83;;
29516;SDS011;40993;50.594;8.664;2023-12-04T14:09:06;38.60;;;18.77;;
29516;SDS011;40993;50.594;8.664;2023-12-04T14:11:38;39.50;;;18.27;;
29516;SDS011;40993;50.594;8.664;2023-12-04T14:14:05;37.80;;;19.63;;
29516;SDS011;40993;50.594;8.664;2023-12-04T14:16:32;40.20;;;19.27;;
29516;SDS011;40993;50.594;8.664;2023-12-04T14:19:00;41.22;;;20.75;;
29516;SDS011;40993;50.594;8.664;2023-12-04T14:21:28;39.97;;;20.55;;
29516;SDS011;40993;50.594;8.664;2023-12-04T14:23:55;40.53;;;19.60;;
29516;SDS011;40993;50.594;8.664;2023-12-04T14:26:23;40.67;;;19.77;;
29516;SDS011;40993;50.594;8.664;2023-12-04T14:28:52;42.45;;;20.48;;
29516;SDS011;40993;50.594;8.664;2023-12-04T14:31:20;44.45;;;20.75;;